CDT,Max TemperatureF,Mean TemperatureF,Min TemperatureF,Max Dew PointF,MeanDew PointF,Min DewpointF,Max Humidity, Mean Humidity, Min Humidity, Max Sea Level PressureIn, Mean Sea Level PressureIn, Min Sea Level PressureIn, Max VisibilityMiles, Mean VisibilityMiles, Min VisibilityMiles, Max Wind SpeedMPH, Mean Wind SpeedMPH, Max Gust SpeedMPH,PrecipitationIn, CloudCover, Events, WindDirDegrees
2013-4-1,29,19,8,14,10,4,84,67,50,30.40,30.36,30.31,,,,9,5,10,0.00,,,336
2013-4-2,35,23,11,24,16,9,88,71,53,30.36,30.30,30.18,,,,18,8,23,0.00,,,100
2013-4-3,51,39,26,34,27,21,85,68,50,30.19,30.04,29.90,,,,28,13,33,0.00,,,236
2013-4-4,36,31,26,25,22,19,85,72,59,30.32,30.27,30.19,,,,17,9,20,0.00,,,9
2013-4-5,44,34,24,29,24,20,92,71,49,30.21,29.93,29.73,,,,23,15,28,0.01,,,130
2013-4-6,37,32,27,30,29,26,100,91,82,29.92,29.80,29.68,,,,21,9,24,0.00,,,7
2013-4-7,46,38,30,37,31,27,92,81,70,29.91,29.79,29.70,,,,18,7,22,0.03,,,134
2013-4-8,33,25,17,32,17,6,100,84,67,30.46,30.12,29.79,,,,22,13,31,0.15,,,32
2013-4-9,29,20,10,19,13,5,84,74,63,30.54,30.49,30.45,,,,17,12,23,0.00,,,348
2013-4-10,36,28,19,22,18,15,84,66,47,30.47,30.30,30.11,,,,13,7,,0.00,,,29
2013-4-11,36,31,26,24,21,18,75,67,59,30.09,29.98,29.93,,,,14,7,18,0.00,,,54
2013-4-12,34,30,25,26,24,21,92,82,72,30.02,30.00,29.97,,,,12,6,15,0.03,,,13
2013-4-13,37,33,28,30,26,23,92,81,70,29.98,29.85,29.76,,,,25,11,30,0.00,,,107
2013-4-14,28,27,25,26,23,19,92,87,81,29.80,29.77,29.73,,,,29,18,35,1.06,,,57
2013-4-15,32,30,27,27,25,22,92,82,72,30.13,29.92,29.78,,,,25,19,30,0.00,,,345
2013-4-16,32,24,16,25,22,14,96,84,72,30.43,30.30,30.14,,,,10,6,13,0.00,,,18
2013-4-17,30,25,20,23,22,19,100,86,72,30.43,30.36,30.30,,,,18,7,22,0.01,,,341
2013-4-18,35,25,15,24,18,11,84,73,61,30.27,30.18,30.08,,,,22,15,25,0.00,,,332
2013-4-19,37,28,19,20,17,14,81,63,44,30.14,30.10,30.04,,,,14,7,17,0.00,,,13
2013-4-20,33,26,19,29,21,16,91,75,58,30.14,30.09,29.99,,,,25,12,31,0.00,,,156
2013-4-21,36,34,31,32,27,21,100,85,69,30.30,30.09,29.93,,,,31,19,38,0.16,,,302
2013-4-22,32,27,22,21,18,16,81,67,53,30.48,30.42,30.31,,,,23,16,26,0.00,,,334
2013-4-23,47,32,17,32,23,14,84,63,42,30.43,30.20,30.04,,,,24,10,32,0.00,,,280
2013-4-24,35,32,28,31,24,18,100,78,56,30.13,30.04,29.96,,,,38,20,48,0.00,,,306
2013-4-25,62,41,20,37,27,17,92,63,34,30.10,29.93,29.79,,,,20,9,24,0.00,,,188
2013-4-26,74,54,33,37,32,29,82,51,20,30.04,29.98,29.91,,,,17,7,23,0.00,,,243
2013-4-27,77,58,39,38,34,31,70,47,23,29.94,29.80,29.65,,,,22,11,29,0.00,,,235
2013-4-28,63,57,50,38,30,21,59,40,21,29.93,29.79,29.62,,,,30,16,35,0.00,,,339
2013-4-29,65,47,29,39,31,22,72,52,31,29.88,29.60,29.41,,,,21,11,30,0.00,,,197
2013-4-30,49,42,34,38,27,20,70,61,51,30.21,29.75,29.44,,,,38,23,49,0.00,,,294